Terminal Aerodrome Forecast
Issued by NWS

Home | Current Version | Previous Version | Graphics & Text | Print | Product List | Glossary On
Versions: 1 2 3 4 5 6 7 8 9 10 11 12 13
000
FTUS43 KICT 271100
TAFHUT
TAF
KHUT 271124Z 2712/2812 04010KT P6SM VCTS BKN040CB BKN100
      TEMPO 2712/2714 5SM -TSRA BR BKN030CB
     FM271400 02014KT P6SM BKN080
     FM280100 02010KT P6SM BKN120=

USA.gov is the U.S. government's official web portal to all federal, state and local government web resources and services.